sensor_id;sensor_type;location;lat;lon;timestamp;P1;durP1;ratioP1;P2;durP2;ratioP2
47481;SDS011;33219;47.410;9.730;2022-07-06T00:02:24;4.67;;;3.40;;
47481;SDS011;33219;47.410;9.730;2022-07-06T00:04:51;3.90;;;3.12;;
47481;SDS011;33219;47.410;9.730;2022-07-06T00:07:19;4.67;;;2.90;;
47481;SDS011;33219;47.410;9.730;2022-07-06T00:09:48;3.50;;;2.98;;
47481;SDS011;33219;47.410;9.730;2022-07-06T00:12:16;4.20;;;2.87;;
47481;SDS011;33219;47.410;9.730;2022-07-06T00:14:43;4.90;;;3.37;;
47481;SDS011;33219;47.410;9.730;2022-07-06T00:17:11;3.47;;;2.87;;
47481;SDS011;33219;47.410;9.730;2022-07-06T00:19:38;5.20;;;3.00;;
47481;SDS011;33219;47.410;9.730;2022-07-06T00:22:06;6.03;;;3.20;;
47481;SDS011;33219;47.410;9.730;2022-07-06T00:24:33;3.80;;;2.83;;
47481;SDS011;33219;47.410;9.730;2022-07-06T00:27:01;4.80;;;2.90;;
47481;SDS011;33219;47.410;9.730;2022-07-06T00:29:29;4.35;;;2.83;;
47481;SDS011;33219;47.410;9.730;2022-07-06T00:31:57;4.10;;;2.92;;
47481;SDS011;33219;47.410;9.730;2022-07-06T00:34:24;4.60;;;2.90;;
47481;SDS011;33219;47.410;9.730;2022-07-06T00:36:53;3.30;;;2.77;;
47481;SDS011;33219;47.410;9.730;2022-07-06T00:39:20;3.30;;;3.00;;
47481;SDS011;33219;47.410;9.730;2022-07-06T00:41:49;4.50;;;3.27;;
47481;SDS011;33219;47.410;9.730;2022-07-06T00:44:16;4.20;;;3.20;;
47481;SDS011;33219;47.410;9.730;2022-07-06T00:46:44;4.50;;;3.37;;
47481;SDS011;33219;47.410;9.730;2022-07-06T00:49:12;5.95;;;3.80;;
47481;SDS011;33219;47.410;9.730;2022-07-06T00:51:58;4.03;;;3.40;;
47481;SDS011;33219;47.410;9.730;2022-07-06T00:54:26;3.92;;;3.08;;
47481;SDS011;33219;47.410;9.730;2022-07-06T00:56:55;4.30;;;3.00;;
47481;SDS011;33219;47.410;9.730;2022-07-06T00:59:24;4.10;;;3.00;;
47481;SDS011;33219;47.410;9.730;2022-07-06T01:01:53;3.75;;;2.80;;
47481;SDS011;33219;47.410;9.730;2022-07-06T01:04:21;3.15;;;2.70;;
47481;SDS011;33219;47.410;9.730;2022-07-06T01:06:48;3.17;;;2.70;;
47481;SDS011;33219;47.410;9.730;2022-07-06T01:09:16;4.78;;;3.08;;
47481;SDS011;33219;47.410;9.730;2022-07-06T01:11:44;3.47;;;2.77;;
47481;SDS011;33219;47.410;9.730;2022-07-06T01:14:12;5.15;;;2.80;;
47481;SDS011;33219;47.410;9.730;2022-07-06T01:16:41;3.58;;;2.90;;
47481;SDS011;33219;47.410;9.730;2022-07-06T01:19:09;4.58;;;3.25;;
47481;SDS011;33219;47.410;9.730;2022-07-06T01:21:39;4.75;;;3.50;;
47481;SDS011;33219;47.410;9.730;2022-07-06T01:24:07;4.70;;;3.62;;
47481;SDS011;33219;47.410;9.730;2022-07-06T01:26:34;4.70;;;3.10;;
47481;SDS011;33219;47.410;9.730;2022-07-06T01:29:02;4.90;;;3.20;;
47481;SDS011;33219;47.410;9.730;2022-07-06T01:31:30;6.60;;;3.52;;
47481;SDS011;33219;47.410;9.730;2022-07-06T01:33:57;3.30;;;2.80;;
47481;SDS011;33219;47.410;9.730;2022-07-06T01:36:25;3.27;;;2.80;;
47481;SDS011;33219;47.410;9.730;2022-07-06T01:38:54;3.30;;;2.70;;
47481;SDS011;33219;47.410;9.730;2022-07-06T01:41:25;3.83;;;2.80;;
47481;SDS011;33219;47.410;9.730;2022-07-06T01:43:53;4.85;;;3.20;;
47481;SDS011;33219;47.410;9.730;2022-07-06T01:46:20;4.85;;;3.00;;
47481;SDS011;33219;47.410;9.730;2022-07-06T01:48:48;3.12;;;2.83;;
47481;SDS011;33219;47.410;9.730;2022-07-06T01:51:15;4.95;;;2.52;;
47481;SDS011;33219;47.410;9.730;2022-07-06T01:53:43;4.90;;;2.85;;
47481;SDS011;33219;47.410;9.730;2022-07-06T01:56:11;4.45;;;2.80;;
47481;SDS011;33219;47.410;9.730;2022-07-06T01:58:39;4.08;;;2.70;;
47481;SDS011;33219;47.410;9.730;2022-07-06T02:01:07;4.12;;;2.50;;
47481;SDS011;33219;47.410;9.730;2022-07-06T02:03:36;3.70;;;2.67;;
47481;SDS011;33219;47.410;9.730;2022-07-06T02:06:04;4.40;;;2.62;;
47481;SDS011;33219;47.410;9.730;2022-07-06T02:08:32;2.90;;;2.58;;
47481;SDS011;33219;47.410;9.730;2022-07-06T02:11:01;3.58;;;2.60;;
47481;SDS011;33219;47.410;9.730;2022-07-06T02:13:29;4.53;;;2.72;;
47481;SDS011;33219;47.410;9.730;2022-07-06T02:15:57;4.60;;;2.70;;
47481;SDS011;33219;47.410;9.730;2022-07-06T02:18:25;4.45;;;2.72;;
47481;SDS011;33219;47.410;9.730;2022-07-06T02:20:52;3.17;;;2.75;;
47481;SDS011;33219;47.410;9.730;2022-07-06T02:23:20;4.97;;;2.92;;
47481;SDS011;33219;47.410;9.730;2022-07-06T02:25:48;4.72;;;2.87;;
47481;SDS011;33219;47.410;9.730;2022-07-06T02:28:15;4.37;;;3.00;;
47481;SDS011;33219;47.410;9.730;2022-07-06T02:30:43;4.70;;;2.80;;
47481;SDS011;33219;47.410;9.730;2022-07-06T02:33:10;4.70;;;3.20;;
47481;SDS011;33219;47.410;9.730;2022-07-06T02:35:38;6.87;;;2.95;;
47481;SDS011;33219;47.410;9.730;2022-07-06T02:38:08;3.60;;;2.90;;
47481;SDS011;33219;47.410;9.730;2022-07-06T02:40:36;3.92;;;2.70;;
47481;SDS011;33219;47.410;9.730;2022-07-06T02:43:04;3.35;;;2.58;;
47481;SDS011;33219;47.410;9.730;2022-07-06T02:45:31;3.67;;;2.83;;
47481;SDS011;33219;47.410;9.730;2022-07-06T02:47:59;5.87;;;3.30;;
47481;SDS011;33219;47.410;9.730;2022-07-06T02:50:27;5.00;;;3.30;;
47481;SDS011;33219;47.410;9.730;2022-07-06T02:52:54;4.67;;;2.77;;
47481;SDS011;33219;47.410;9.730;2022-07-06T02:55:22;4.58;;;2.95;;
47481;SDS011;33219;47.410;9.730;2022-07-06T02:57:49;5.03;;;3.08;;
47481;SDS011;33219;47.410;9.730;2022-07-06T03:00:17;4.17;;;2.83;;
47481;SDS011;33219;47.410;9.730;2022-07-06T03:02:45;5.83;;;3.30;;
47481;SDS011;33219;47.410;9.730;2022-07-06T03:05:12;4.12;;;2.90;;
47481;SDS011;33219;47.410;9.730;2022-07-06T03:07:40;3.55;;;2.60;;
47481;SDS011;33219;47.410;9.730;2022-07-06T03:10:07;3.58;;;2.98;;
47481;SDS011;33219;47.410;9.730;2022-07-06T03:12:35;5.05;;;3.27;;
47481;SDS011;33219;47.410;9.730;2022-07-06T03:15:03;3.80;;;3.08;;
47481;SDS011;33219;47.410;9.730;2022-07-06T03:17:30;4.90;;;3.10;;
47481;SDS011;33219;47.410;9.730;2022-07-06T03:19:58;3.47;;;3.15;;
47481;SDS011;33219;47.410;9.730;2022-07-06T03:22:25;3.40;;;3.10;;
47481;SDS011;33219;47.410;9.730;2022-07-06T03:24:53;3.52;;;3.00;;
47481;SDS011;33219;47.410;9.730;2022-07-06T03:27:20;3.40;;;3.10;;
47481;SDS011;33219;47.410;9.730;2022-07-06T03:29:48;3.83;;;3.10;;
47481;SDS011;33219;47.410;9.730;2022-07-06T03:32:15;4.78;;;3.40;;
47481;SDS011;33219;47.410;9.730;2022-07-06T03:34:43;3.87;;;3.40;;
47481;SDS011;33219;47.410;9.730;2022-07-06T03:37:11;5.12;;;3.70;;
47481;SDS011;33219;47.410;9.730;2022-07-06T03:39:38;4.85;;;3.90;;
47481;SDS011;33219;47.410;9.730;2022-07-06T03:42:06;4.90;;;3.62;;
47481;SDS011;33219;47.410;9.730;2022-07-06T03:44:33;4.00;;;3.58;;
47481;SDS011;33219;47.410;9.730;2022-07-06T03:47:01;6.60;;;5.90;;
47481;SDS011;33219;47.410;9.730;2022-07-06T03:49:28;8.90;;;6.47;;
47481;SDS011;33219;47.410;9.730;2022-07-06T03:51:56;9.80;;;7.53;;
47481;SDS011;33219;47.410;9.730;2022-07-06T03:54:24;7.83;;;6.42;;
47481;SDS011;33219;47.410;9.730;2022-07-06T03:56:51;5.70;;;4.28;;
47481;SDS011;33219;47.410;9.730;2022-07-06T03:59:19;4.33;;;3.75;;
47481;SDS011;33219;47.410;9.730;2022-07-06T04:01:46;5.08;;;4.03;;
47481;SDS011;33219;47.410;9.730;2022-07-06T04:04:14;5.65;;;4.08;;
47481;SDS011;33219;47.410;9.730;2022-07-06T04:06:42;5.47;;;4.53;;
47481;SDS011;33219;47.410;9.730;2022-07-06T04:09:09;4.97;;;3.52;;
47481;SDS011;33219;47.410;9.730;2022-07-06T04:11:37;5.67;;;3.30;;
47481;SDS011;33219;47.410;9.730;2022-07-06T04:14:04;3.90;;;3.10;;
47481;SDS011;33219;47.410;9.730;2022-07-06T04:16:32;3.90;;;3.00;;
47481;SDS011;33219;47.410;9.730;2022-07-06T04:18:59;5.12;;;3.40;;
47481;SDS011;33219;47.410;9.730;2022-07-06T04:21:27;4.45;;;3.33;;
47481;SDS011;33219;47.410;9.730;2022-07-06T04:23:54;6.10;;;3.37;;
47481;SDS011;33219;47.410;9.730;2022-07-06T04:26:22;4.05;;;3.40;;
47481;SDS011;33219;47.410;9.730;2022-07-06T04:28:50;5.75;;;3.10;;
47481;SDS011;33219;47.410;9.730;2022-07-06T04:31:17;5.28;;;2.80;;
47481;SDS011;33219;47.410;9.730;2022-07-06T04:33:45;3.58;;;2.70;;
47481;SDS011;33219;47.410;9.730;2022-07-06T04:36:12;3.92;;;2.42;;
47481;SDS011;33219;47.410;9.730;2022-07-06T04:38:40;4.17;;;2.20;;
47481;SDS011;33219;47.410;9.730;2022-07-06T04:41:07;4.90;;;2.30;;
47481;SDS011;33219;47.410;9.730;2022-07-06T04:43:35;3.42;;;2.15;;
47481;SDS011;33219;47.410;9.730;2022-07-06T04:46:02;4.90;;;2.20;;
47481;SDS011;33219;47.410;9.730;2022-07-06T04:48:31;3.67;;;2.00;;
47481;SDS011;33219;47.410;9.730;2022-07-06T04:51:00;4.67;;;2.52;;
47481;SDS011;33219;47.410;9.730;2022-07-06T04:53:28;3.02;;;1.92;;
47481;SDS011;33219;47.410;9.730;2022-07-06T04:55:57;4.10;;;1.70;;
47481;SDS011;33219;47.410;9.730;2022-07-06T04:58:24;3.00;;;1.72;;
47481;SDS011;33219;47.410;9.730;2022-07-06T05:00:52;4.65;;;1.90;;
47481;SDS011;33219;47.410;9.730;2022-07-06T05:03:19;4.70;;;1.90;;
47481;SDS011;33219;47.410;9.730;2022-07-06T05:05:47;3.90;;;2.30;;
47481;SDS011;33219;47.410;9.730;2022-07-06T05:08:14;3.85;;;2.30;;
47481;SDS011;33219;47.410;9.730;2022-07-06T05:10:42;5.65;;;2.70;;
47481;SDS011;33219;47.410;9.730;2022-07-06T05:13:10;3.70;;;2.30;;
47481;SDS011;33219;47.410;9.730;2022-07-06T05:15:37;3.55;;;2.52;;
47481;SDS011;33219;47.410;9.730;2022-07-06T05:18:05;4.95;;;2.50;;
47481;SDS011;33219;47.410;9.730;2022-07-06T05:20:32;4.28;;;2.72;;
47481;SDS011;33219;47.410;9.730;2022-07-06T05:23:00;4.22;;;2.80;;
47481;SDS011;33219;47.410;9.730;2022-07-06T05:25:27;3.52;;;2.80;;
47481;SDS011;33219;47.410;9.730;2022-07-06T05:27:55;4.75;;;2.90;;
47481;SDS011;33219;47.410;9.730;2022-07-06T05:30:23;5.92;;;2.90;;
47481;SDS011;33219;47.410;9.730;2022-07-06T05:32:51;3.60;;;2.70;;
47481;SDS011;33219;47.410;9.730;2022-07-06T05:35:18;3.92;;;2.55;;
47481;SDS011;33219;47.410;9.730;2022-07-06T05:37:46;4.00;;;2.35;;
47481;SDS011;33219;47.410;9.730;2022-07-06T05:40:13;5.83;;;3.15;;
47481;SDS011;33219;47.410;9.730;2022-07-06T05:42:41;5.83;;;2.85;;
47481;SDS011;33219;47.410;9.730;2022-07-06T05:45:09;5.75;;;2.70;;
47481;SDS011;33219;47.410;9.730;2022-07-06T05:47:36;4.72;;;2.95;;
47481;SDS011;33219;47.410;9.730;2022-07-06T05:50:22;4.08;;;2.67;;
47481;SDS011;33219;47.410;9.730;2022-07-06T05:52:57;5.25;;;2.70;;
47481;SDS011;33219;47.410;9.730;2022-07-06T05:55:26;3.50;;;2.60;;
47481;SDS011;33219;47.410;9.730;2022-07-06T05:57:53;4.62;;;2.70;;
47481;SDS011;33219;47.410;9.730;2022-07-06T06:00:22;3.75;;;2.42;;
47481;SDS011;33219;47.410;9.730;2022-07-06T06:02:51;4.95;;;2.80;;
47481;SDS011;33219;47.410;9.730;2022-07-06T06:05:19;3.72;;;2.37;;
47481;SDS011;33219;47.410;9.730;2022-07-06T06:07:47;4.33;;;2.40;;
47481;SDS011;33219;47.410;9.730;2022-07-06T06:10:16;4.35;;;2.40;;
47481;SDS011;33219;47.410;9.730;2022-07-06T06:12:45;5.20;;;2.62;;
47481;SDS011;33219;47.410;9.730;2022-07-06T06:15:13;6.08;;;2.70;;
47481;SDS011;33219;47.410;9.730;2022-07-06T06:17:40;4.67;;;2.70;;
47481;SDS011;33219;47.410;9.730;2022-07-06T06:20:09;5.40;;;2.83;;
47481;SDS011;33219;47.410;9.730;2022-07-06T06:22:48;4.50;;;2.45;;
47481;SDS011;33219;47.410;9.730;2022-07-06T06:27:48;4.85;;;2.60;;
47481;SDS011;33219;47.410;9.730;2022-07-06T06:30:15;6.75;;;2.80;;
47481;SDS011;33219;47.410;9.730;2022-07-06T06:32:43;5.30;;;3.08;;
47481;SDS011;33219;47.410;9.730;2022-07-06T06:35:11;6.72;;;2.90;;
47481;SDS011;33219;47.410;9.730;2022-07-06T06:37:38;4.87;;;2.92;;
47481;SDS011;33219;47.410;9.730;2022-07-06T06:40:06;5.10;;;2.75;;
47481;SDS011;33219;47.410;9.730;2022-07-06T06:42:37;5.17;;;2.70;;
47481;SDS011;33219;47.410;9.730;2022-07-06T06:45:05;5.25;;;3.00;;
47481;SDS011;33219;47.410;9.730;2022-07-06T06:47:33;4.80;;;2.75;;
47481;SDS011;33219;47.410;9.730;2022-07-06T06:50:01;4.83;;;2.67;;
47481;SDS011;33219;47.410;9.730;2022-07-06T06:52:28;5.50;;;2.72;;
47481;SDS011;33219;47.410;9.730;2022-07-06T06:54:56;5.95;;;2.72;;
47481;SDS011;33219;47.410;9.730;2022-07-06T06:57:23;4.67;;;2.83;;
47481;SDS011;33219;47.410;9.730;2022-07-06T06:59:51;3.37;;;2.60;;
47481;SDS011;33219;47.410;9.730;2022-07-06T07:02:19;4.22;;;2.60;;
47481;SDS011;33219;47.410;9.730;2022-07-06T07:04:46;4.65;;;2.60;;
47481;SDS011;33219;47.410;9.730;2022-07-06T07:07:14;2.87;;;2.20;;
47481;SDS011;33219;47.410;9.730;2022-07-06T07:09:41;2.98;;;2.20;;
47481;SDS011;33219;47.410;9.730;2022-07-06T07:12:09;3.87;;;2.40;;
47481;SDS011;33219;47.410;9.730;2022-07-06T07:14:37;2.85;;;2.10;;
47481;SDS011;33219;47.410;9.730;2022-07-06T07:17:05;3.45;;;2.42;;
47481;SDS011;33219;47.410;9.730;2022-07-06T07:19:33;3.05;;;2.33;;
47481;SDS011;33219;47.410;9.730;2022-07-06T07:22:00;3.27;;;2.22;;
47481;SDS011;33219;47.410;9.730;2022-07-06T07:24:28;5.53;;;2.25;;
47481;SDS011;33219;47.410;9.730;2022-07-06T07:26:55;3.95;;;2.20;;
47481;SDS011;33219;47.410;9.730;2022-07-06T07:29:23;2.75;;;2.25;;
47481;SDS011;33219;47.410;9.730;2022-07-06T07:31:51;4.08;;;2.35;;
47481;SDS011;33219;47.410;9.730;2022-07-06T07:34:19;4.47;;;2.17;;
47481;SDS011;33219;47.410;9.730;2022-07-06T07:36:46;4.20;;;2.22;;
47481;SDS011;33219;47.410;9.730;2022-07-06T07:39:13;3.47;;;2.17;;
47481;SDS011;33219;47.410;9.730;2022-07-06T07:41:41;5.97;;;2.37;;
47481;SDS011;33219;47.410;9.730;2022-07-06T07:44:09;3.25;;;2.10;;
47481;SDS011;33219;47.410;9.730;2022-07-06T07:46:37;2.62;;;2.10;;
47481;SDS011;33219;47.410;9.730;2022-07-06T07:49:04;2.58;;;2.22;;
47481;SDS011;33219;47.410;9.730;2022-07-06T07:51:32;3.80;;;2.30;;
47481;SDS011;33219;47.410;9.730;2022-07-06T07:53:59;3.58;;;2.30;;
47481;SDS011;33219;47.410;9.730;2022-07-06T07:56:27;3.87;;;2.60;;
47481;SDS011;33219;47.410;9.730;2022-07-06T07:58:54;4.62;;;2.67;;
47481;SDS011;33219;47.410;9.730;2022-07-06T08:01:22;4.20;;;2.33;;
47481;SDS011;33219;47.410;9.730;2022-07-06T08:03:50;2.75;;;2.20;;
47481;SDS011;33219;47.410;9.730;2022-07-06T08:06:17;4.70;;;2.45;;
47481;SDS011;33219;47.410;9.730;2022-07-06T08:08:45;4.95;;;2.30;;
47481;SDS011;33219;47.410;9.730;2022-07-06T08:11:12;2.75;;;2.20;;
47481;SDS011;33219;47.410;9.730;2022-07-06T08:13:41;4.28;;;2.70;;
47481;SDS011;33219;47.410;9.730;2022-07-06T08:16:09;3.42;;;2.37;;
47481;SDS011;33219;47.410;9.730;2022-07-06T08:18:37;4.33;;;2.45;;
47481;SDS011;33219;47.410;9.730;2022-07-06T08:21:04;3.87;;;2.77;;
47481;SDS011;33219;47.410;9.730;2022-07-06T08:23:32;6.78;;;2.70;;
47481;SDS011;33219;47.410;9.730;2022-07-06T08:26:02;5.15;;;2.87;;
47481;SDS011;33219;47.410;9.730;2022-07-06T08:28:30;3.42;;;2.45;;
47481;SDS011;33219;47.410;9.730;2022-07-06T08:30:58;3.20;;;2.55;;
47481;SDS011;33219;47.410;9.730;2022-07-06T08:33:25;3.08;;;2.45;;
47481;SDS011;33219;47.410;9.730;2022-07-06T08:35:53;3.60;;;2.60;;
47481;SDS011;33219;47.410;9.730;2022-07-06T08:38:21;3.70;;;2.52;;
47481;SDS011;33219;47.410;9.730;2022-07-06T08:40:49;4.08;;;2.98;;
47481;SDS011;33219;47.410;9.730;2022-07-06T08:43:17;3.22;;;2.72;;
47481;SDS011;33219;47.410;9.730;2022-07-06T08:45:45;4.40;;;2.65;;
47481;SDS011;33219;47.410;9.730;2022-07-06T08:48:15;3.02;;;2.40;;
47481;SDS011;33219;47.410;9.730;2022-07-06T08:50:44;4.17;;;2.90;;
47481;SDS011;33219;47.410;9.730;2022-07-06T08:53:12;5.12;;;2.80;;
47481;SDS011;33219;47.410;9.730;2022-07-06T08:55:41;3.50;;;2.60;;
47481;SDS011;33219;47.410;9.730;2022-07-06T08:58:08;6.70;;;3.02;;
47481;SDS011;33219;47.410;9.730;2022-07-06T09:00:36;4.53;;;2.80;;
47481;SDS011;33219;47.410;9.730;2022-07-06T09:03:04;6.70;;;2.85;;
47481;SDS011;33219;47.410;9.730;2022-07-06T09:05:32;3.77;;;2.60;;
47481;SDS011;33219;47.410;9.730;2022-07-06T09:08:01;3.92;;;2.62;;
47481;SDS011;33219;47.410;9.730;2022-07-06T09:10:29;4.90;;;2.92;;
47481;SDS011;33219;47.410;9.730;2022-07-06T09:13:04;4.40;;;2.47;;
47481;SDS011;33219;47.410;9.730;2022-07-06T09:15:33;4.28;;;2.83;;
47481;SDS011;33219;47.410;9.730;2022-07-06T09:18:02;4.37;;;2.58;;
47481;SDS011;33219;47.410;9.730;2022-07-06T09:20:30;4.12;;;2.70;;
47481;SDS011;33219;47.410;9.730;2022-07-06T09:23:00;4.85;;;2.65;;
47481;SDS011;33219;47.410;9.730;2022-07-06T09:25:29;3.65;;;2.70;;
47481;SDS011;33219;47.410;9.730;2022-07-06T09:27:57;4.08;;;2.62;;
47481;SDS011;33219;47.410;9.730;2022-07-06T09:30:26;4.40;;;2.60;;
47481;SDS011;33219;47.410;9.730;2022-07-06T09:32:56;4.75;;;2.52;;
47481;SDS011;33219;47.410;9.730;2022-07-06T09:35:29;3.33;;;2.77;;
47481;SDS011;33219;47.410;9.730;2022-07-06T09:38:13;4.92;;;2.70;;
47481;SDS011;33219;47.410;9.730;2022-07-06T09:40:42;3.10;;;2.67;;
47481;SDS011;33219;47.410;9.730;2022-07-06T09:45:44;3.40;;;2.55;;
47481;SDS011;33219;47.410;9.730;2022-07-06T09:48:19;4.70;;;2.30;;
47481;SDS011;33219;47.410;9.730;2022-07-06T09:50:51;3.85;;;2.65;;
47481;SDS011;33219;47.410;9.730;2022-07-06T09:53:24;3.98;;;2.70;;
47481;SDS011;33219;47.410;9.730;2022-07-06T09:55:53;3.65;;;2.70;;
47481;SDS011;33219;47.410;9.730;2022-07-06T09:58:24;3.60;;;2.35;;
47481;SDS011;33219;47.410;9.730;2022-07-06T10:00:51;4.12;;;2.70;;
47481;SDS011;33219;47.410;9.730;2022-07-06T10:03:19;4.00;;;2.60;;
47481;SDS011;33219;47.410;9.730;2022-07-06T10:05:47;4.62;;;2.98;;
47481;SDS011;33219;47.410;9.730;2022-07-06T10:08:16;3.42;;;2.62;;
47481;SDS011;33219;47.410;9.730;2022-07-06T10:10:46;4.15;;;2.80;;
47481;SDS011;33219;47.410;9.730;2022-07-06T10:13:15;4.55;;;2.77;;
47481;SDS011;33219;47.410;9.730;2022-07-06T10:16:05;4.30;;;2.62;;
47481;SDS011;33219;47.410;9.730;2022-07-06T10:18:25;5.47;;;2.72;;
47481;SDS011;33219;47.410;9.730;2022-07-06T10:20:54;2.98;;;2.60;;
47481;SDS011;33219;47.410;9.730;2022-07-06T10:23:28;4.13;;;2.83;;
47481;SDS011;33219;47.410;9.730;2022-07-06T10:25:59;4.67;;;2.62;;
47481;SDS011;33219;47.410;9.730;2022-07-06T10:28:31;3.40;;;2.52;;
47481;SDS011;33219;47.410;9.730;2022-07-06T10:31:02;5.75;;;2.77;;
47481;SDS011;33219;47.410;9.730;2022-07-06T10:33:31;6.37;;;3.05;;
47481;SDS011;33219;47.410;9.730;2022-07-06T10:36:00;3.45;;;2.40;;
47481;SDS011;33219;47.410;9.730;2022-07-06T10:38:31;3.75;;;2.65;;
47481;SDS011;33219;47.410;9.730;2022-07-06T10:41:04;4.28;;;2.90;;
47481;SDS011;33219;47.410;9.730;2022-07-06T10:43:38;5.17;;;2.40;;
47481;SDS011;33219;47.410;9.730;2022-07-06T10:46:14;3.62;;;2.30;;
47481;SDS011;33219;47.410;9.730;2022-07-06T10:48:49;4.12;;;2.67;;
47481;SDS011;33219;47.410;9.730;2022-07-06T10:54:00;4.10;;;2.40;;
47481;SDS011;33219;47.410;9.730;2022-07-06T10:56:33;4.15;;;2.20;;
47481;SDS011;33219;47.410;9.730;2022-07-06T10:59:09;4.42;;;2.40;;
47481;SDS011;33219;47.410;9.730;2022-07-06T11:01:38;4.25;;;2.35;;
47481;SDS011;33219;47.410;9.730;2022-07-06T11:04:07;3.90;;;2.12;;
47481;SDS011;33219;47.410;9.730;2022-07-06T11:06:36;3.42;;;2.20;;
47481;SDS011;33219;47.410;9.730;2022-07-06T11:09:06;3.72;;;2.30;;
47481;SDS011;33219;47.410;9.730;2022-07-06T11:14:08;3.52;;;1.90;;
47481;SDS011;33219;47.410;9.730;2022-07-06T11:16:59;4.45;;;2.20;;
47481;SDS011;33219;47.410;9.730;2022-07-06T11:19:23;4.70;;;2.52;;
47481;SDS011;33219;47.410;9.730;2022-07-06T11:21:53;4.37;;;2.52;;
47481;SDS011;33219;47.410;9.730;2022-07-06T11:24:30;3.50;;;2.30;;
47481;SDS011;33219;47.410;9.730;2022-07-06T11:27:00;3.30;;;2.30;;
47481;SDS011;33219;47.410;9.730;2022-07-06T11:29:31;3.10;;;2.45;;
47481;SDS011;33219;47.410;9.730;2022-07-06T11:38:01;4.20;;;2.40;;
47481;SDS011;33219;47.410;9.730;2022-07-06T11:43:06;3.72;;;2.58;;
47481;SDS011;33219;47.410;9.730;2022-07-06T11:45:44;5.03;;;2.37;;
47481;SDS011;33219;47.410;9.730;2022-07-06T11:48:09;4.42;;;2.50;;
47481;SDS011;33219;47.410;9.730;2022-07-06T11:50:59;3.65;;;2.55;;
47481;SDS011;33219;47.410;9.730;2022-07-06T11:53:33;3.67;;;2.60;;
47481;SDS011;33219;47.410;9.730;2022-07-06T11:56:06;3.87;;;2.20;;
47481;SDS011;33219;47.410;9.730;2022-07-06T11:58:41;3.65;;;2.70;;
47481;SDS011;33219;47.410;9.730;2022-07-06T12:01:12;5.87;;;2.80;;
47481;SDS011;33219;47.410;9.730;2022-07-06T12:03:47;4.70;;;2.60;;
47481;SDS011;33219;47.410;9.730;2022-07-06T12:06:19;3.60;;;2.40;;
47481;SDS011;33219;47.410;9.730;2022-07-06T12:09:03;3.45;;;2.00;;
47481;SDS011;33219;47.410;9.730;2022-07-06T12:11:33;3.85;;;2.47;;
47481;SDS011;33219;47.410;9.730;2022-07-06T12:14:13;5.58;;;2.80;;
47481;SDS011;33219;47.410;9.730;2022-07-06T12:16:54;7.03;;;3.33;;
47481;SDS011;33219;47.410;9.730;2022-07-06T12:19:18;10.80;;;2.87;;
47481;SDS011;33219;47.410;9.730;2022-07-06T12:22:02;5.80;;;2.60;;
47481;SDS011;33219;47.410;9.730;2022-07-06T12:24:36;3.30;;;2.40;;
47481;SDS011;33219;47.410;9.730;2022-07-06T12:27:17;4.10;;;2.30;;
47481;SDS011;33219;47.410;9.730;2022-07-06T12:29:47;3.17;;;2.10;;
47481;SDS011;33219;47.410;9.730;2022-07-06T12:32:21;4.80;;;2.30;;
47481;SDS011;33219;47.410;9.730;2022-07-06T12:35:04;5.17;;;2.30;;
47481;SDS011;33219;47.410;9.730;2022-07-06T12:37:54;3.45;;;2.15;;
47481;SDS011;33219;47.410;9.730;2022-07-06T12:40:25;5.05;;;2.20;;
47481;SDS011;33219;47.410;9.730;2022-07-06T12:42:54;5.97;;;2.77;;
47481;SDS011;33219;47.410;9.730;2022-07-06T12:45:28;6.55;;;2.77;;
47481;SDS011;33219;47.410;9.730;2022-07-06T12:47:57;9.25;;;3.60;;
47481;SDS011;33219;47.410;9.730;2022-07-06T12:50:48;6.53;;;4.42;;
47481;SDS011;33219;47.410;9.730;2022-07-06T12:53:23;5.75;;;2.15;;
47481;SDS011;33219;47.410;9.730;2022-07-06T12:58:56;6.37;;;2.00;;
47481;SDS011;33219;47.410;9.730;2022-07-06T13:01:29;5.45;;;1.70;;
47481;SDS011;33219;47.410;9.730;2022-07-06T13:04:19;2.50;;;1.80;;
47481;SDS011;33219;47.410;9.730;2022-07-06T13:06:35;5.22;;;1.95;;
47481;SDS011;33219;47.410;9.730;2022-07-06T13:09:03;4.28;;;2.02;;
47481;SDS011;33219;47.410;9.730;2022-07-06T13:11:39;4.33;;;2.45;;
47481;SDS011;33219;47.410;9.730;2022-07-06T13:14:08;7.25;;;2.10;;
47481;SDS011;33219;47.410;9.730;2022-07-06T13:16:44;5.50;;;2.17;;
47481;SDS011;33219;47.410;9.730;2022-07-06T13:19:19;6.17;;;2.25;;
47481;SDS011;33219;47.410;9.730;2022-07-06T13:24:44;6.30;;;2.35;;
47481;SDS011;33219;47.410;9.730;2022-07-06T13:27:11;2.35;;;1.75;;
47481;SDS011;33219;47.410;9.730;2022-07-06T13:29:40;3.52;;;1.80;;
47481;SDS011;33219;47.410;9.730;2022-07-06T13:32:11;3.05;;;1.57;;
47481;SDS011;33219;47.410;9.730;2022-07-06T13:34:48;5.12;;;1.80;;
47481;SDS011;33219;47.410;9.730;2022-07-06T13:37:14;3.77;;;2.08;;
47481;SDS011;33219;47.410;9.730;2022-07-06T13:39:53;4.90;;;2.10;;
47481;SDS011;33219;47.410;9.730;2022-07-06T13:42:22;6.53;;;2.02;;
47481;SDS011;33219;47.410;9.730;2022-07-06T13:44:52;5.62;;;1.87;;
47481;SDS011;33219;47.410;9.730;2022-07-06T13:47:21;4.37;;;2.10;;
47481;SDS011;33219;47.410;9.730;2022-07-06T13:49:49;7.33;;;1.80;;
47481;SDS011;33219;47.410;9.730;2022-07-06T13:52:18;4.55;;;1.77;;
47481;SDS011;33219;47.410;9.730;2022-07-06T13:54:49;5.03;;;1.92;;
47481;SDS011;33219;47.410;9.730;2022-07-06T13:57:16;11.55;;;2.55;;
47481;SDS011;33219;47.410;9.730;2022-07-06T13:59:50;4.20;;;2.35;;
47481;SDS011;33219;47.410;9.730;2022-07-06T14:02:20;4.53;;;2.08;;
47481;SDS011;33219;47.410;9.730;2022-07-06T14:04:48;3.35;;;2.00;;
47481;SDS011;33219;47.410;9.730;2022-07-06T14:07:18;2.65;;;1.57;;
47481;SDS011;33219;47.410;9.730;2022-07-06T14:09:46;8.05;;;1.95;;
47481;SDS011;33219;47.410;9.730;2022-07-06T14:12:16;3.62;;;1.85;;
47481;SDS011;33219;47.410;9.730;2022-07-06T14:14:49;2.90;;;1.90;;
47481;SDS011;33219;47.410;9.730;2022-07-06T14:17:18;3.85;;;1.90;;
47481;SDS011;33219;47.410;9.730;2022-07-06T14:19:48;6.10;;;2.60;;
47481;SDS011;33219;47.410;9.730;2022-07-06T14:22:18;3.10;;;1.85;;
47481;SDS011;33219;47.410;9.730;2022-07-06T14:24:47;7.95;;;2.02;;
47481;SDS011;33219;47.410;9.730;2022-07-06T14:27:15;4.15;;;1.92;;
47481;SDS011;33219;47.410;9.730;2022-07-06T14:29:45;6.25;;;2.30;;
47481;SDS011;33219;47.410;9.730;2022-07-06T14:32:25;10.30;;;5.97;;
47481;SDS011;33219;47.410;9.730;2022-07-06T14:34:58;4.45;;;2.12;;
47481;SDS011;33219;47.410;9.730;2022-07-06T14:37:27;4.25;;;2.25;;
47481;SDS011;33219;47.410;9.730;2022-07-06T14:39:55;3.40;;;1.90;;
47481;SDS011;33219;47.410;9.730;2022-07-06T14:42:23;2.87;;;1.80;;
47481;SDS011;33219;47.410;9.730;2022-07-06T14:44:51;5.22;;;2.60;;
47481;SDS011;33219;47.410;9.730;2022-07-06T14:47:19;4.10;;;2.00;;
47481;SDS011;33219;47.410;9.730;2022-07-06T14:49:49;2.35;;;1.80;;
47481;SDS011;33219;47.410;9.730;2022-07-06T14:52:21;4.97;;;1.77;;
47481;SDS011;33219;47.410;9.730;2022-07-06T14:54:53;3.10;;;2.10;;
47481;SDS011;33219;47.410;9.730;2022-07-06T14:57:23;5.08;;;2.30;;
47481;SDS011;33219;47.410;9.730;2022-07-06T14:59:50;8.75;;;2.67;;
47481;SDS011;33219;47.410;9.730;2022-07-06T15:02:18;3.92;;;2.00;;
47481;SDS011;33219;47.410;9.730;2022-07-06T15:04:46;5.47;;;2.30;;
47481;SDS011;33219;47.410;9.730;2022-07-06T15:07:13;3.95;;;2.10;;
47481;SDS011;33219;47.410;9.730;2022-07-06T15:09:42;7.08;;;2.80;;
47481;SDS011;33219;47.410;9.730;2022-07-06T15:12:10;6.90;;;2.37;;
47481;SDS011;33219;47.410;9.730;2022-07-06T15:14:38;8.53;;;2.77;;
47481;SDS011;33219;47.410;9.730;2022-07-06T15:17:05;3.37;;;2.02;;
47481;SDS011;33219;47.410;9.730;2022-07-06T15:19:34;5.87;;;2.10;;
47481;SDS011;33219;47.410;9.730;2022-07-06T15:22:01;2.92;;;1.90;;
47481;SDS011;33219;47.410;9.730;2022-07-06T15:24:29;2.87;;;1.80;;
47481;SDS011;33219;47.410;9.730;2022-07-06T15:26:57;4.10;;;2.00;;